Grasslands, Zimbabwe

4:49 AM CAT on July 14, 2014 (GMT +0200)
Harare International (FVHA) Elev 4856 ft | 17.92 °S, 31.13 °E | Change Station

Current weather conditions updated 1 hour ago

Clear
Clear
46 °F
Feels Like 44 °F
N
5
Wind Variable Wind from ENE

Today is forecast to be nearly the same temperature as yesterday.

Today
High -- | Low -- °F
--% Chance of Precip.
Yesterday
High -- | Low -- °F
Precip. -- in
6:26 AM 5:33 PM
Waning Gibbous, 96% visible
Pressure 30.33 in
Visibility -9999.0 miles
Clouds
Windchill 44 °F
Dew Point 36 °F
Humidity 66%
Rainfall 0.00 in
Snow Depth Not available.
UV Not available.
Pollen Not available.
Air Quality Not available.
Flu Activity Not available.
METAR FVHA 140100Z 06004KT CAVOK 08/02 Q1027 NOSIG RMK QFE 858.0

More Conditions Fewer Conditions

Pressure 30.33 in
Visibility -9999.0 miles
Clouds
Windchill 44 °F
Dew Point 36 °F
Humidity 66%
Rainfall 0.00 in
Snow Depth Not available.
UV Not available.
Pollen Not available.
Air Quality Not available.
Flu Activity Not available.
METAR FVHA 140100Z 06004KT CAVOK 08/02 Q1027 NOSIG RMK QFE 858.0

More Conditions Fewer Conditions

10-Day Weather Forecast

Almanac

Astronomy

Jul. 14, 2014 Rise Set
Actual Time 6:26 AM CAT 5:33 PM CAT
Civil Twilight 6:02 AM CAT 5:57 PM CAT
Nautical Twilight 5:35 AM CAT 6:24 PM CAT
Astronomical Twilight 5:09 AM CAT 6:50 PM CAT
Moon 7:53 PM CAT 7:52 AM CAT
Length of Visible Light 11h 54m
Length of Day
11h 07m
Tomorrow will be 0m 29s longer.
Waning Gibbous, 96% of the Moon is Illuminated
Jul 13
Waning Gibbous
Jul 18
Last Quarter
Jul 26
New
Aug 3
First Quarter
Aug 10
Full

Yesterday's Extremes

Country Highs Country Lows

Community

WunderPhotos

Upload Photos

1,733,536 photos uploaded!

Nearby

Snow Depth

Not available.

Earthquake Activity

City Distance Mag. Time & Date
No recent earthquake activity has been reported nearby.
Minimum magnitude displayed is 2.5.

Coastal Water Temperatures

Place Temperature
No Stations Reporting

Nearby Weather Stations

There are no personal weather stations in this area.